sensor_id;sensor_type;location;lat;lon;timestamp;temperature;humidity
51765;DHT22;37835;53.256;6.456;2022-09-29T00:01:06;6.50;99.90
51765;DHT22;37835;53.256;6.456;2022-09-29T00:03:32;6.50;99.90
51765;DHT22;37835;53.256;6.456;2022-09-29T00:05:58;7.40;99.90
51765;DHT22;37835;53.256;6.456;2022-09-29T00:08:25;6.30;99.90
51765;DHT22;37835;53.256;6.456;2022-09-29T00:10:51;6.30;99.90
51765;DHT22;37835;53.256;6.456;2022-09-29T00:13:18;6.30;99.90
51765;DHT22;37835;53.256;6.456;2022-09-29T00:15:44;6.20;99.90
51765;DHT22;37835;53.256;6.456;2022-09-29T00:18:10;6.20;99.90
51765;DHT22;37835;53.256;6.456;2022-09-29T00:20:36;6.20;99.90
51765;DHT22;37835;53.256;6.456;2022-09-29T00:23:03;6.10;99.90
51765;DHT22;37835;53.256;6.456;2022-09-29T00:25:29;6.10;99.90
51765;DHT22;37835;53.256;6.456;2022-09-29T00:27:55;6.00;99.90
51765;DHT22;37835;53.256;6.456;2022-09-29T00:30:20;6.00;99.90
51765;DHT22;37835;53.256;6.456;2022-09-29T00:32:46;6.00;99.90
51765;DHT22;37835;53.256;6.456;2022-09-29T00:35:11;6.00;99.90
51765;DHT22;37835;53.256;6.456;2022-09-29T00:37:37;6.00;99.90
51765;DHT22;37835;53.256;6.456;2022-09-29T00:40:05;6.00;99.90
51765;DHT22;37835;53.256;6.456;2022-09-29T00:42:30;6.00;99.90
51765;DHT22;37835;53.256;6.456;2022-09-29T00:45:01;6.00;99.90
51765;DHT22;37835;53.256;6.456;2022-09-29T00:47:29;6.00;99.90
51765;DHT22;37835;53.256;6.456;2022-09-29T00:50:04;5.90;99.90
51765;DHT22;37835;53.256;6.456;2022-09-29T00:52:33;5.90;99.90
51765;DHT22;37835;53.256;6.456;2022-09-29T00:55:40;5.90;99.90
51765;DHT22;37835;53.256;6.456;2022-09-29T00:58:12;5.80;99.90
51765;DHT22;37835;53.256;6.456;2022-09-29T01:00:39;5.70;99.90
51765;DHT22;37835;53.256;6.456;2022-09-29T01:03:07;5.70;99.90
51765;DHT22;37835;53.256;6.456;2022-09-29T01:05:45;5.60;99.90
51765;DHT22;37835;53.256;6.456;2022-09-29T01:08:38;5.60;99.90
51765;DHT22;37835;53.256;6.456;2022-09-29T01:11:03;5.60;99.90
51765;DHT22;37835;53.256;6.456;2022-09-29T01:13:30;5.60;99.90
51765;DHT22;37835;53.256;6.456;2022-09-29T01:15:57;5.50;99.90
51765;DHT22;37835;53.256;6.456;2022-09-29T01:18:22;5.50;99.90
51765;DHT22;37835;53.256;6.456;2022-09-29T01:21:00;5.50;99.90
51765;DHT22;37835;53.256;6.456;2022-09-29T01:35:11;5.40;99.90
51765;DHT22;37835;53.256;6.456;2022-09-29T01:41:11;5.40;99.90
51765;DHT22;37835;53.256;6.456;2022-09-29T01:43:36;5.50;99.90
51765;DHT22;37835;53.256;6.456;2022-09-29T01:46:10;5.50;99.90
51765;DHT22;37835;53.256;6.456;2022-09-29T01:48:46;5.50;99.90
51765;DHT22;37835;53.256;6.456;2022-09-29T01:51:22;5.50;99.90
51765;DHT22;37835;53.256;6.456;2022-09-29T01:53:52;5.50;99.90
51765;DHT22;37835;53.256;6.456;2022-09-29T01:56:28;5.50;99.90
51765;DHT22;37835;53.256;6.456;2022-09-29T01:59:00;5.50;99.90
51765;DHT22;37835;53.256;6.456;2022-09-29T02:01:31;5.50;99.90
51765;DHT22;37835;53.256;6.456;2022-09-29T02:04:08;5.50;99.90
51765;DHT22;37835;53.256;6.456;2022-09-29T02:06:41;5.50;99.90
51765;DHT22;37835;53.256;6.456;2022-09-29T02:09:14;5.50;99.90
51765;DHT22;37835;53.256;6.456;2022-09-29T02:11:42;5.50;99.90
51765;DHT22;37835;53.256;6.456;2022-09-29T02:16:46;5.40;99.90
51765;DHT22;37835;53.256;6.456;2022-09-29T02:19:14;5.40;99.90
51765;DHT22;37835;53.256;6.456;2022-09-29T02:21:42;5.30;99.90
51765;DHT22;37835;53.256;6.456;2022-09-29T02:24:09;5.30;99.90
51765;DHT22;37835;53.256;6.456;2022-09-29T02:26:35;5.30;99.90
51765;DHT22;37835;53.256;6.456;2022-09-29T02:29:01;5.30;99.90
51765;DHT22;37835;53.256;6.456;2022-09-29T02:31:27;5.30;99.90
51765;DHT22;37835;53.256;6.456;2022-09-29T02:33:53;5.20;99.90
51765;DHT22;37835;53.256;6.456;2022-09-29T02:36:42;5.30;99.90
51765;DHT22;37835;53.256;6.456;2022-09-29T02:39:41;5.30;99.90
51765;DHT22;37835;53.256;6.456;2022-09-29T02:42:17;5.20;99.90
51765;DHT22;37835;53.256;6.456;2022-09-29T02:50:12;5.20;99.90
51765;DHT22;37835;53.256;6.456;2022-09-29T02:53:00;5.20;99.90
51765;DHT22;37835;53.256;6.456;2022-09-29T02:55:44;5.20;99.90
51765;DHT22;37835;53.256;6.456;2022-09-29T02:58:17;5.20;99.90
51765;DHT22;37835;53.256;6.456;2022-09-29T03:00:45;5.20;99.90
51765;DHT22;37835;53.256;6.456;2022-09-29T03:03:11;5.20;99.90
51765;DHT22;37835;53.256;6.456;2022-09-29T03:05:36;5.20;99.90
51765;DHT22;37835;53.256;6.456;2022-09-29T03:08:02;5.30;99.90
51765;DHT22;37835;53.256;6.456;2022-09-29T03:10:28;5.30;99.90
51765;DHT22;37835;53.256;6.456;2022-09-29T03:12:53;5.20;99.90
51765;DHT22;37835;53.256;6.456;2022-09-29T03:15:19;5.20;99.90
51765;DHT22;37835;53.256;6.456;2022-09-29T03:17:45;5.30;99.90
51765;DHT22;37835;53.256;6.456;2022-09-29T03:20:11;5.20;99.90
51765;DHT22;37835;53.256;6.456;2022-09-29T03:22:37;5.20;99.90
51765;DHT22;37835;53.256;6.456;2022-09-29T03:25:03;5.20;99.90
51765;DHT22;37835;53.256;6.456;2022-09-29T03:27:31;5.20;99.90
51765;DHT22;37835;53.256;6.456;2022-09-29T03:29:56;5.20;99.90
51765;DHT22;37835;53.256;6.456;2022-09-29T03:32:22;5.10;99.90
51765;DHT22;37835;53.256;6.456;2022-09-29T03:34:47;5.20;99.90
51765;DHT22;37835;53.256;6.456;2022-09-29T03:37:13;5.10;99.90
51765;DHT22;37835;53.256;6.456;2022-09-29T03:39:38;5.10;99.90
51765;DHT22;37835;53.256;6.456;2022-09-29T03:42:04;5.20;99.90
51765;DHT22;37835;53.256;6.456;2022-09-29T03:44:30;5.10;99.90
51765;DHT22;37835;53.256;6.456;2022-09-29T03:46:55;5.10;99.90
51765;DHT22;37835;53.256;6.456;2022-09-29T03:49:21;5.10;99.90
51765;DHT22;37835;53.256;6.456;2022-09-29T03:51:46;5.10;99.90
51765;DHT22;37835;53.256;6.456;2022-09-29T03:54:12;5.10;99.90
51765;DHT22;37835;53.256;6.456;2022-09-29T03:56:38;5.10;99.90
51765;DHT22;37835;53.256;6.456;2022-09-29T03:59:04;5.10;99.90
51765;DHT22;37835;53.256;6.456;2022-09-29T04:01:32;5.10;99.90
51765;DHT22;37835;53.256;6.456;2022-09-29T04:03:58;5.00;99.90
51765;DHT22;37835;53.256;6.456;2022-09-29T04:06:24;5.00;99.90
51765;DHT22;37835;53.256;6.456;2022-09-29T04:08:49;5.00;99.90
51765;DHT22;37835;53.256;6.456;2022-09-29T04:11:15;5.00;99.90
51765;DHT22;37835;53.256;6.456;2022-09-29T04:13:41;5.00;99.90
51765;DHT22;37835;53.256;6.456;2022-09-29T04:16:07;5.00;99.90
51765;DHT22;37835;53.256;6.456;2022-09-29T04:18:33;5.00;99.90
51765;DHT22;37835;53.256;6.456;2022-09-29T04:20:59;5.00;99.90
51765;DHT22;37835;53.256;6.456;2022-09-29T04:23:29;5.00;99.90
51765;DHT22;37835;53.256;6.456;2022-09-29T04:25:56;4.90;99.90
51765;DHT22;37835;53.256;6.456;2022-09-29T04:28:22;4.90;99.90
51765;DHT22;37835;53.256;6.456;2022-09-29T04:30:48;4.90;99.90
51765;DHT22;37835;53.256;6.456;2022-09-29T04:33:13;4.90;99.90
51765;DHT22;37835;53.256;6.456;2022-09-29T04:35:39;4.90;99.90
51765;DHT22;37835;53.256;6.456;2022-09-29T04:38:04;4.90;99.90
51765;DHT22;37835;53.256;6.456;2022-09-29T04:40:33;4.80;99.90
51765;DHT22;37835;53.256;6.456;2022-09-29T04:42:58;4.70;99.90
51765;DHT22;37835;53.256;6.456;2022-09-29T04:45:24;4.60;99.90
51765;DHT22;37835;53.256;6.456;2022-09-29T04:47:49;4.50;99.90
51765;DHT22;37835;53.256;6.456;2022-09-29T04:50:15;4.40;99.90
51765;DHT22;37835;53.256;6.456;2022-09-29T04:52:41;4.40;99.90
51765;DHT22;37835;53.256;6.456;2022-09-29T04:55:08;4.30;99.90
51765;DHT22;37835;53.256;6.456;2022-09-29T04:57:38;4.40;99.90
51765;DHT22;37835;53.256;6.456;2022-09-29T05:00:06;4.30;99.90
51765;DHT22;37835;53.256;6.456;2022-09-29T05:02:33;4.30;99.90
51765;DHT22;37835;53.256;6.456;2022-09-29T05:04:59;4.30;99.90
51765;DHT22;37835;53.256;6.456;2022-09-29T05:07:24;4.30;99.90
51765;DHT22;37835;53.256;6.456;2022-09-29T05:09:50;4.30;99.90
51765;DHT22;37835;53.256;6.456;2022-09-29T05:12:16;4.30;99.90
51765;DHT22;37835;53.256;6.456;2022-09-29T05:14:41;4.30;99.90
51765;DHT22;37835;53.256;6.456;2022-09-29T05:17:07;4.30;99.90
51765;DHT22;37835;53.256;6.456;2022-09-29T05:19:33;4.40;99.90
51765;DHT22;37835;53.256;6.456;2022-09-29T05:21:58;4.40;99.90
51765;DHT22;37835;53.256;6.456;2022-09-29T05:24:25;4.40;99.90
51765;DHT22;37835;53.256;6.456;2022-09-29T05:26:51;4.40;99.90
51765;DHT22;37835;53.256;6.456;2022-09-29T05:29:17;4.50;99.90
51765;DHT22;37835;53.256;6.456;2022-09-29T05:31:43;3.00;99.90
51765;DHT22;37835;53.256;6.456;2022-09-29T05:34:08;4.50;99.90
51765;DHT22;37835;53.256;6.456;2022-09-29T05:36:34;4.50;99.90
51765;DHT22;37835;53.256;6.456;2022-09-29T05:39:00;4.40;99.90
51765;DHT22;37835;53.256;6.456;2022-09-29T05:41:26;4.40;99.90
51765;DHT22;37835;53.256;6.456;2022-09-29T05:43:53;4.40;99.90
51765;DHT22;37835;53.256;6.456;2022-09-29T05:46:19;4.40;99.90
51765;DHT22;37835;53.256;6.456;2022-09-29T05:48:45;4.30;99.90
51765;DHT22;37835;53.256;6.456;2022-09-29T05:51:17;4.70;99.90
51765;DHT22;37835;53.256;6.456;2022-09-29T05:53:43;4.30;99.90
51765;DHT22;37835;53.256;6.456;2022-09-29T05:56:11;4.80;99.90
51765;DHT22;37835;53.256;6.456;2022-09-29T05:58:37;4.40;99.90
51765;DHT22;37835;53.256;6.456;2022-09-29T06:01:21;4.40;99.90
51765;DHT22;37835;53.256;6.456;2022-09-29T06:03:47;4.80;99.90
51765;DHT22;37835;53.256;6.456;2022-09-29T06:06:15;4.40;99.90
51765;DHT22;37835;53.256;6.456;2022-09-29T06:08:41;4.50;99.90
51765;DHT22;37835;53.256;6.456;2022-09-29T06:11:13;4.50;99.90
51765;DHT22;37835;53.256;6.456;2022-09-29T06:13:40;4.50;99.90
51765;DHT22;37835;53.256;6.456;2022-09-29T06:16:07;4.50;99.90
51765;DHT22;37835;53.256;6.456;2022-09-29T06:18:33;4.50;99.90
51765;DHT22;37835;53.256;6.456;2022-09-29T06:21:04;4.50;99.90
51765;DHT22;37835;53.256;6.456;2022-09-29T06:23:30;4.50;99.90
51765;DHT22;37835;53.256;6.456;2022-09-29T06:25:59;4.50;99.90
51765;DHT22;37835;53.256;6.456;2022-09-29T06:28:27;4.60;99.90
51765;DHT22;37835;53.256;6.456;2022-09-29T06:30:58;4.60;99.90
51765;DHT22;37835;53.256;6.456;2022-09-29T06:33:25;4.60;99.90
51765;DHT22;37835;53.256;6.456;2022-09-29T06:35:51;4.60;99.90
51765;DHT22;37835;53.256;6.456;2022-09-29T06:38:36;4.60;99.90
51765;DHT22;37835;53.256;6.456;2022-09-29T06:41:01;4.70;99.90
51765;DHT22;37835;53.256;6.456;2022-09-29T06:43:27;4.70;99.90
51765;DHT22;37835;53.256;6.456;2022-09-29T06:45:52;4.70;99.90
51765;DHT22;37835;53.256;6.456;2022-09-29T06:48:18;4.70;99.90
51765;DHT22;37835;53.256;6.456;2022-09-29T06:50:44;4.80;99.90
51765;DHT22;37835;53.256;6.456;2022-09-29T06:53:09;4.80;99.90
51765;DHT22;37835;53.256;6.456;2022-09-29T06:55:35;4.80;99.90
51765;DHT22;37835;53.256;6.456;2022-09-29T06:58:01;4.90;99.90
51765;DHT22;37835;53.256;6.456;2022-09-29T07:00:26;4.90;99.90
51765;DHT22;37835;53.256;6.456;2022-09-29T07:02:52;4.90;99.90
51765;DHT22;37835;53.256;6.456;2022-09-29T07:05:19;5.00;99.90
51765;DHT22;37835;53.256;6.456;2022-09-29T07:07:47;5.10;99.90
51765;DHT22;37835;53.256;6.456;2022-09-29T07:10:12;5.10;99.90
51765;DHT22;37835;53.256;6.456;2022-09-29T07:12:38;5.20;99.90
51765;DHT22;37835;53.256;6.456;2022-09-29T07:15:04;5.20;99.90
51765;DHT22;37835;53.256;6.456;2022-09-29T07:17:29;5.30;99.90
51765;DHT22;37835;53.256;6.456;2022-09-29T07:19:55;5.30;99.90
51765;DHT22;37835;53.256;6.456;2022-09-29T07:22:21;5.40;99.90
51765;DHT22;37835;53.256;6.456;2022-09-29T07:24:47;5.50;99.90
51765;DHT22;37835;53.256;6.456;2022-09-29T07:27:15;5.50;99.90
51765;DHT22;37835;53.256;6.456;2022-09-29T07:29:51;5.60;99.90
51765;DHT22;37835;53.256;6.456;2022-09-29T07:32:18;6.10;99.90
51765;DHT22;37835;53.256;6.456;2022-09-29T07:34:43;5.90;99.90
51765;DHT22;37835;53.256;6.456;2022-09-29T07:37:10;5.80;99.90
51765;DHT22;37835;53.256;6.456;2022-09-29T07:39:36;5.90;99.90
51765;DHT22;37835;53.256;6.456;2022-09-29T07:42:02;6.00;99.90
51765;DHT22;37835;53.256;6.456;2022-09-29T07:44:28;6.20;99.90
51765;DHT22;37835;53.256;6.456;2022-09-29T07:46:55;6.20;99.90
51765;DHT22;37835;53.256;6.456;2022-09-29T07:49:20;6.20;99.90
51765;DHT22;37835;53.256;6.456;2022-09-29T07:51:46;6.30;99.90
51765;DHT22;37835;53.256;6.456;2022-09-29T07:54:12;6.40;99.90
51765;DHT22;37835;53.256;6.456;2022-09-29T07:56:37;6.50;99.90
51765;DHT22;37835;53.256;6.456;2022-09-29T07:59:03;6.60;99.90
51765;DHT22;37835;53.256;6.456;2022-09-29T08:01:29;6.70;99.90
51765;DHT22;37835;53.256;6.456;2022-09-29T08:03:56;6.80;99.90
51765;DHT22;37835;53.256;6.456;2022-09-29T08:06:23;6.90;99.90
51765;DHT22;37835;53.256;6.456;2022-09-29T08:08:49;7.00;99.90
51765;DHT22;37835;53.256;6.456;2022-09-29T08:11:18;7.20;99.90
51765;DHT22;37835;53.256;6.456;2022-09-29T08:13:45;7.30;99.90
51765;DHT22;37835;53.256;6.456;2022-09-29T08:16:12;7.40;99.90
51765;DHT22;37835;53.256;6.456;2022-09-29T08:18:39;7.60;99.90
51765;DHT22;37835;53.256;6.456;2022-09-29T08:21:05;7.70;99.90
51765;DHT22;37835;53.256;6.456;2022-09-29T08:23:37;7.80;99.90
51765;DHT22;37835;53.256;6.456;2022-09-29T08:26:05;8.00;99.90
51765;DHT22;37835;53.256;6.456;2022-09-29T08:28:33;8.20;99.90
51765;DHT22;37835;53.256;6.456;2022-09-29T08:31:08;8.40;99.90
51765;DHT22;37835;53.256;6.456;2022-09-29T08:33:35;8.50;99.90
51765;DHT22;37835;53.256;6.456;2022-09-29T08:36:01;8.60;99.90
51765;DHT22;37835;53.256;6.456;2022-09-29T08:38:30;8.80;99.90
51765;DHT22;37835;53.256;6.456;2022-09-29T08:41:02;9.00;99.90
51765;DHT22;37835;53.256;6.456;2022-09-29T08:43:33;9.10;99.90
51765;DHT22;37835;53.256;6.456;2022-09-29T08:46:10;9.30;99.90
51765;DHT22;37835;53.256;6.456;2022-09-29T08:48:41;9.40;99.90
51765;DHT22;37835;53.256;6.456;2022-09-29T08:51:20;11.30;99.90
51765;DHT22;37835;53.256;6.456;2022-09-29T08:53:51;9.70;99.90
51765;DHT22;37835;53.256;6.456;2022-09-29T08:56:18;9.80;99.90
51765;DHT22;37835;53.256;6.456;2022-09-29T08:58:44;9.90;99.90
51765;DHT22;37835;53.256;6.456;2022-09-29T09:09:52;10.40;99.90
51765;DHT22;37835;53.256;6.456;2022-09-29T09:12:50;10.50;99.90
51765;DHT22;37835;53.256;6.456;2022-09-29T09:18:31;10.60;99.90
51765;DHT22;37835;53.256;6.456;2022-09-29T09:21:03;9.70;99.90
51765;DHT22;37835;53.256;6.456;2022-09-29T09:23:54;10.90;99.90
51765;DHT22;37835;53.256;6.456;2022-09-29T09:26:41;10.90;99.90
51765;DHT22;37835;53.256;6.456;2022-09-29T09:29:28;11.00;99.90
51765;DHT22;37835;53.256;6.456;2022-09-29T09:32:00;11.20;99.90
51765;DHT22;37835;53.256;6.456;2022-09-29T09:37:40;11.40;99.90
51765;DHT22;37835;53.256;6.456;2022-09-29T09:40:24;11.50;99.90
51765;DHT22;37835;53.256;6.456;2022-09-29T09:43:01;11.60;99.90
51765;DHT22;37835;53.256;6.456;2022-09-29T09:45:31;11.70;99.90
51765;DHT22;37835;53.256;6.456;2022-09-29T09:48:12;11.80;99.90
51765;DHT22;37835;53.256;6.456;2022-09-29T09:50:40;11.80;99.90
51765;DHT22;37835;53.256;6.456;2022-09-29T10:01:40;12.20;99.90
51765;DHT22;37835;53.256;6.456;2022-09-29T10:04:10;12.20;99.90
51765;DHT22;37835;53.256;6.456;2022-09-29T10:06:36;12.50;99.90
51765;DHT22;37835;53.256;6.456;2022-09-29T10:09:02;12.40;99.90
51765;DHT22;37835;53.256;6.456;2022-09-29T10:11:30;12.50;99.90
51765;DHT22;37835;53.256;6.456;2022-09-29T10:14:14;12.60;99.90
51765;DHT22;37835;53.256;6.456;2022-09-29T10:16:49;12.70;99.90
51765;DHT22;37835;53.256;6.456;2022-09-29T10:19:50;12.80;99.90
51765;DHT22;37835;53.256;6.456;2022-09-29T10:22:13;12.90;99.90
51765;DHT22;37835;53.256;6.456;2022-09-29T10:24:39;13.00;99.90
51765;DHT22;37835;53.256;6.456;2022-09-29T10:27:05;13.00;99.90
51765;DHT22;37835;53.256;6.456;2022-09-29T10:29:43;13.10;99.90
51765;DHT22;37835;53.256;6.456;2022-09-29T10:32:15;13.20;99.90
51765;DHT22;37835;53.256;6.456;2022-09-29T10:34:44;13.20;99.90
51765;DHT22;37835;53.256;6.456;2022-09-29T10:37:31;13.30;99.90
51765;DHT22;37835;53.256;6.456;2022-09-29T10:42:40;13.40;99.90
51765;DHT22;37835;53.256;6.456;2022-09-29T10:47:32;13.50;99.90
51765;DHT22;37835;53.256;6.456;2022-09-29T10:52:41;13.60;99.90
51765;DHT22;37835;53.256;6.456;2022-09-29T11:02:52;13.90;99.90
51765;DHT22;37835;53.256;6.456;2022-09-29T11:05:23;15.40;99.90
51765;DHT22;37835;53.256;6.456;2022-09-29T11:07:50;13.90;99.90
51765;DHT22;37835;53.256;6.456;2022-09-29T11:15:25;14.00;99.90
51765;DHT22;37835;53.256;6.456;2022-09-29T11:17:51;14.00;99.90
51765;DHT22;37835;53.256;6.456;2022-09-29T11:20:17;13.90;99.90
51765;DHT22;37835;53.256;6.456;2022-09-29T11:36:37;14.50;99.90
51765;DHT22;37835;53.256;6.456;2022-09-29T11:39:49;14.50;99.90
51765;DHT22;37835;53.256;6.456;2022-09-29T11:45:01;14.60;99.90
51765;DHT22;37835;53.256;6.456;2022-09-29T11:47:46;14.60;99.90
51765;DHT22;37835;53.256;6.456;2022-09-29T11:51:23;14.50;99.90
51765;DHT22;37835;53.256;6.456;2022-09-29T12:03:57;15.00;99.90
51765;DHT22;37835;53.256;6.456;2022-09-29T12:12:37;14.40;99.90
51765;DHT22;37835;53.256;6.456;2022-09-29T12:15:24;14.50;99.90
51765;DHT22;37835;53.256;6.456;2022-09-29T12:18:00;14.50;99.90
51765;DHT22;37835;53.256;6.456;2022-09-29T12:20:28;14.50;99.90
51765;DHT22;37835;53.256;6.456;2022-09-29T12:22:57;14.50;99.90
51765;DHT22;37835;53.256;6.456;2022-09-29T12:25:27;14.60;99.90
51765;DHT22;37835;53.256;6.456;2022-09-29T12:27:57;14.50;99.90
51765;DHT22;37835;53.256;6.456;2022-09-29T12:30:26;15.00;99.90
51765;DHT22;37835;53.256;6.456;2022-09-29T12:33:03;14.50;99.90
51765;DHT22;37835;53.256;6.456;2022-09-29T12:35:35;14.40;99.90
51765;DHT22;37835;53.256;6.456;2022-09-29T12:40:43;14.30;99.90
51765;DHT22;37835;53.256;6.456;2022-09-29T12:46:05;14.30;99.90
51765;DHT22;37835;53.256;6.456;2022-09-29T12:51:45;14.30;99.90
51765;DHT22;37835;53.256;6.456;2022-09-29T12:54:34;14.30;99.90
51765;DHT22;37835;53.256;6.456;2022-09-29T12:57:17;14.30;99.90
51765;DHT22;37835;53.256;6.456;2022-09-29T13:08:11;14.30;99.90
51765;DHT22;37835;53.256;6.456;2022-09-29T13:22:04;14.30;99.90
51765;DHT22;37835;53.256;6.456;2022-09-29T13:24:44;14.30;99.90
51765;DHT22;37835;53.256;6.456;2022-09-29T13:29:56;14.40;99.90
51765;DHT22;37835;53.256;6.456;2022-09-29T13:32:25;14.50;99.90
51765;DHT22;37835;53.256;6.456;2022-09-29T13:34:56;14.50;99.90
51765;DHT22;37835;53.256;6.456;2022-09-29T13:37:24;14.70;99.90
51765;DHT22;37835;53.256;6.456;2022-09-29T13:39:58;14.80;99.90
51765;DHT22;37835;53.256;6.456;2022-09-29T13:45:36;15.10;99.90
51765;DHT22;37835;53.256;6.456;2022-09-29T13:50:55;15.40;99.90
51765;DHT22;37835;53.256;6.456;2022-09-29T13:53:26;15.50;99.90
51765;DHT22;37835;53.256;6.456;2022-09-29T13:58:34;15.70;99.90
51765;DHT22;37835;53.256;6.456;2022-09-29T14:01:03;15.90;99.90
51765;DHT22;37835;53.256;6.456;2022-09-29T14:03:41;16.00;99.90
51765;DHT22;37835;53.256;6.456;2022-09-29T14:06:14;16.00;99.90
51765;DHT22;37835;53.256;6.456;2022-09-29T14:08:45;15.90;99.90
51765;DHT22;37835;53.256;6.456;2022-09-29T14:11:34;15.80;99.90
51765;DHT22;37835;53.256;6.456;2022-09-29T14:14:04;15.70;99.90
51765;DHT22;37835;53.256;6.456;2022-09-29T14:19:48;15.40;99.90
51765;DHT22;37835;53.256;6.456;2022-09-29T14:30:50;14.80;99.90
51765;DHT22;37835;53.256;6.456;2022-09-29T14:33:33;14.70;99.90
51765;DHT22;37835;53.256;6.456;2022-09-29T14:36:17;14.60;99.90
51765;DHT22;37835;53.256;6.456;2022-09-29T14:38:46;14.50;99.90
51765;DHT22;37835;53.256;6.456;2022-09-29T14:41:27;14.40;99.90
51765;DHT22;37835;53.256;6.456;2022-09-29T14:44:08;14.40;99.90
51765;DHT22;37835;53.256;6.456;2022-09-29T14:52:51;14.20;99.90
51765;DHT22;37835;53.256;6.456;2022-09-29T15:01:09;14.10;99.90
51765;DHT22;37835;53.256;6.456;2022-09-29T15:03:45;14.10;99.90
51765;DHT22;37835;53.256;6.456;2022-09-29T15:06:15;14.00;99.90
51765;DHT22;37835;53.256;6.456;2022-09-29T15:08:51;14.00;99.90
51765;DHT22;37835;53.256;6.456;2022-09-29T15:13:52;14.00;99.90
51765;DHT22;37835;53.256;6.456;2022-09-29T15:17:02;14.00;99.90
51765;DHT22;37835;53.256;6.456;2022-09-29T15:19:38;14.00;99.90
51765;DHT22;37835;53.256;6.456;2022-09-29T15:22:29;14.00;99.90
51765;DHT22;37835;53.256;6.456;2022-09-29T15:27:50;13.90;99.90
51765;DHT22;37835;53.256;6.456;2022-09-29T15:30:20;14.00;99.90
51765;DHT22;37835;53.256;6.456;2022-09-29T15:32:47;14.00;99.90
51765;DHT22;37835;53.256;6.456;2022-09-29T15:35:23;13.90;99.90
51765;DHT22;37835;53.256;6.456;2022-09-29T15:40:19;13.80;99.90
51765;DHT22;37835;53.256;6.456;2022-09-29T15:42:46;13.90;99.90
51765;DHT22;37835;53.256;6.456;2022-09-29T15:45:16;13.80;99.90
51765;DHT22;37835;53.256;6.456;2022-09-29T15:47:44;13.80;99.90
51765;DHT22;37835;53.256;6.456;2022-09-29T15:50:18;13.80;99.90
51765;DHT22;37835;53.256;6.456;2022-09-29T15:52:44;13.70;99.90
51765;DHT22;37835;53.256;6.456;2022-09-29T15:55:13;14.00;99.90
51765;DHT22;37835;53.256;6.456;2022-09-29T15:57:45;13.90;99.90
51765;DHT22;37835;53.256;6.456;2022-09-29T16:02:54;13.70;99.90
51765;DHT22;37835;53.256;6.456;2022-09-29T16:08:04;13.60;99.90
51765;DHT22;37835;53.256;6.456;2022-09-29T16:10:53;13.60;99.90
51765;DHT22;37835;53.256;6.456;2022-09-29T16:13:25;13.60;99.90
51765;DHT22;37835;53.256;6.456;2022-09-29T16:15:58;13.50;99.90
51765;DHT22;37835;53.256;6.456;2022-09-29T16:18:29;13.50;99.90
51765;DHT22;37835;53.256;6.456;2022-09-29T16:20:56;13.50;99.90
51765;DHT22;37835;53.256;6.456;2022-09-29T16:23:34;13.50;99.90
51765;DHT22;37835;53.256;6.456;2022-09-29T16:28:34;13.40;99.90
51765;DHT22;37835;53.256;6.456;2022-09-29T16:31:05;13.40;99.90
51765;DHT22;37835;53.256;6.456;2022-09-29T16:33:33;13.40;99.90
51765;DHT22;37835;53.256;6.456;2022-09-29T16:36:17;13.40;99.90
51765;DHT22;37835;53.256;6.456;2022-09-29T16:38:45;13.40;99.90
51765;DHT22;37835;53.256;6.456;2022-09-29T16:43:39;13.40;99.90
51765;DHT22;37835;53.256;6.456;2022-09-29T16:46:14;13.40;99.90
51765;DHT22;37835;53.256;6.456;2022-09-29T16:48:43;13.30;99.90
51765;DHT22;37835;53.256;6.456;2022-09-29T16:51:16;13.30;99.90
51765;DHT22;37835;53.256;6.456;2022-09-29T16:53:42;13.30;99.90
51765;DHT22;37835;53.256;6.456;2022-09-29T16:56:15;13.20;99.90
51765;DHT22;37835;53.256;6.456;2022-09-29T16:58:43;13.20;99.90
51765;DHT22;37835;53.256;6.456;2022-09-29T17:01:10;13.10;99.90
51765;DHT22;37835;53.256;6.456;2022-09-29T17:03:39;13.00;99.90
51765;DHT22;37835;53.256;6.456;2022-09-29T17:06:05;13.00;99.90
51765;DHT22;37835;53.256;6.456;2022-09-29T17:08:31;12.90;99.90
51765;DHT22;37835;53.256;6.456;2022-09-29T17:10:59;12.90;99.90
51765;DHT22;37835;53.256;6.456;2022-09-29T17:13:31;12.80;99.90
51765;DHT22;37835;53.256;6.456;2022-09-29T17:15:57;12.80;99.90
51765;DHT22;37835;53.256;6.456;2022-09-29T17:18:23;12.70;99.90
51765;DHT22;37835;53.256;6.456;2022-09-29T17:20:51;12.60;99.90
51765;DHT22;37835;53.256;6.456;2022-09-29T17:23:17;12.60;99.90
51765;DHT22;37835;53.256;6.456;2022-09-29T17:25:45;12.50;99.90
51765;DHT22;37835;53.256;6.456;2022-09-29T17:28:22;12.40;99.90
51765;DHT22;37835;53.256;6.456;2022-09-29T17:30:51;12.40;99.90
51765;DHT22;37835;53.256;6.456;2022-09-29T17:33:19;12.30;99.90
51765;DHT22;37835;53.256;6.456;2022-09-29T17:35:50;12.20;99.90
51765;DHT22;37835;53.256;6.456;2022-09-29T17:38:17;12.10;99.90
51765;DHT22;37835;53.256;6.456;2022-09-29T17:40:52;12.10;99.90
51765;DHT22;37835;53.256;6.456;2022-09-29T17:43:20;12.00;99.90
51765;DHT22;37835;53.256;6.456;2022-09-29T17:45:47;11.90;99.90
51765;DHT22;37835;53.256;6.456;2022-09-29T17:48:13;11.90;99.90
51765;DHT22;37835;53.256;6.456;2022-09-29T17:50:43;11.80;99.90
51765;DHT22;37835;53.256;6.456;2022-09-29T17:53:10;11.80;99.90
51765;DHT22;37835;53.256;6.456;2022-09-29T17:55:38;11.70;99.90
51765;DHT22;37835;53.256;6.456;2022-09-29T17:58:04;11.50;99.90
51765;DHT22;37835;53.256;6.456;2022-09-29T18:00:33;11.50;99.90
51765;DHT22;37835;53.256;6.456;2022-09-29T18:03:04;11.50;99.90
51765;DHT22;37835;53.256;6.456;2022-09-29T18:05:30;11.40;99.90
51765;DHT22;37835;53.256;6.456;2022-09-29T18:07:57;11.40;99.90
51765;DHT22;37835;53.256;6.456;2022-09-29T18:10:27;11.30;99.90
51765;DHT22;37835;53.256;6.456;2022-09-29T18:12:54;11.30;99.90
51765;DHT22;37835;53.256;6.456;2022-09-29T18:15:20;11.20;99.90
51765;DHT22;37835;53.256;6.456;2022-09-29T18:17:46;11.20;99.90
51765;DHT22;37835;53.256;6.456;2022-09-29T18:20:12;11.10;99.90
51765;DHT22;37835;53.256;6.456;2022-09-29T18:22:40;11.00;99.90
51765;DHT22;37835;53.256;6.456;2022-09-29T18:25:07;11.10;99.90
51765;DHT22;37835;53.256;6.456;2022-09-29T18:27:33;11.00;99.90
51765;DHT22;37835;53.256;6.456;2022-09-29T18:29:59;10.90;99.90
51765;DHT22;37835;53.256;6.456;2022-09-29T18:32:25;10.90;99.90
51765;DHT22;37835;53.256;6.456;2022-09-29T18:34:51;10.90;99.90
51765;DHT22;37835;53.256;6.456;2022-09-29T18:37:16;10.80;99.90
51765;DHT22;37835;53.256;6.456;2022-09-29T18:39:42;10.80;99.90
51765;DHT22;37835;53.256;6.456;2022-09-29T18:42:08;10.80;99.90
51765;DHT22;37835;53.256;6.456;2022-09-29T18:44:33;10.80;99.90
51765;DHT22;37835;53.256;6.456;2022-09-29T18:47:01;10.70;99.90
51765;DHT22;37835;53.256;6.456;2022-09-29T18:49:26;10.70;99.90
51765;DHT22;37835;53.256;6.456;2022-09-29T18:51:52;10.70;99.90
51765;DHT22;37835;53.256;6.456;2022-09-29T18:54:17;10.70;99.90
51765;DHT22;37835;53.256;6.456;2022-09-29T18:56:43;10.60;99.90
51765;DHT22;37835;53.256;6.456;2022-09-29T18:59:12;10.60;99.90